Portada
METAR-TAF:

METAR-TAF

Aeropuertos :

Rasht, Irán

latitud: 37-12N, longitud: 049-38E, altitud: -7 m

Observación

El informe se hizo hace 40 minutos, a las 05:00 UTC
Viento 6 kt del este
Temperatura 23°C
Humedad 69%
Presión 1016 hPa
Visibilidad 10 km o más
sin nubes por debajo de 1500 m y sin presencia de cumulonimbus.

METAR: OIGG 280500Z 08006KT CAVOK 23/17 Q1016

Hora: 10:10 (05:40 UTC)


TAF: falta

Observaciones y pronósticos meteorológicos de más de 4000 aeropuertos (mensajes METAR y TAF).

Los puntos amarillos y rojos representan las estaciones disponibles.

Ponga el ratón en el punto deseado para ver el nombre de la estación.

Haga clic para ver las observaciones y los pronósticos meteorológicos.

Para cambiar el mapa : haga clic en los botones verdes con una cruz de color negro para hacer un zoom, en el botón verde con un guión para alejar o en las flechas verdes para mapas adyacentes.


METAR-TAF: